createdAt,value
2016-07-05T00:00:10.433Z,23.04
2016-07-05T00:01:10.469Z,23.09
2016-07-05T00:02:10.486Z,23.04
2016-07-05T00:03:10.474Z,23.07
2016-07-05T00:04:10.495Z,23.12
2016-07-05T00:05:10.500Z,23.1
2016-07-05T00:06:10.516Z,23.06
2016-07-05T00:07:10.527Z,23.06
2016-07-05T00:08:10.549Z,23.09
2016-07-05T00:09:10.548Z,23.03
2016-07-05T00:10:10.554Z,23.04
2016-07-05T00:11:10.553Z,23.04
2016-07-05T00:12:10.569Z,23.06
2016-07-05T00:13:10.570Z,23.07
2016-07-05T00:14:10.594Z,23.14
2016-07-05T00:15:10.595Z,23.03
2016-07-05T00:16:10.617Z,23.06
2016-07-05T00:17:10.605Z,23.01
2016-07-05T00:18:10.637Z,23.03
2016-07-05T00:19:10.643Z,23.07
2016-07-05T00:20:10.622Z,23.03
2016-07-05T00:21:10.645Z,22.97
2016-07-05T00:22:10.665Z,23.01
2016-07-05T00:23:10.681Z,23
2016-07-05T00:24:10.694Z,23.01
2016-07-05T00:25:10.706Z,23.03
2016-07-05T00:26:10.694Z,23.12
2016-07-05T00:27:10.689Z,23.04
2016-07-05T00:28:10.678Z,23.03
2016-07-05T00:29:10.768Z,23.03
2016-07-05T00:30:10.702Z,22.97
2016-07-05T00:31:10.716Z,23.07
2016-07-05T00:32:10.756Z,23.06
2016-07-05T00:33:10.742Z,22.99
2016-07-05T00:34:10.775Z,23.04
2016-07-05T00:35:10.789Z,23.04
2016-07-05T00:36:10.802Z,23.06
2016-07-05T00:37:10.805Z,23.01
2016-07-05T00:38:10.804Z,23.03
2016-07-05T00:39:10.814Z,23.01
2016-07-05T00:40:10.819Z,23.04
2016-07-05T00:41:10.825Z,23.03
2016-07-05T00:42:10.837Z,22.97
2016-07-05T00:43:10.830Z,23.01
2016-07-05T00:44:10.848Z,22.99
2016-07-05T00:45:10.888Z,22.97
2016-07-05T00:46:10.875Z,22.99
2016-07-05T00:47:10.901Z,23.01
2016-07-05T00:48:10.871Z,22.99
2016-07-05T00:49:10.895Z,23.04
2016-07-05T00:50:10.886Z,23
2016-07-05T00:51:10.910Z,22.97
2016-07-05T00:52:10.929Z,22.99
2016-07-05T00:53:10.923Z,22.99
2016-07-05T00:54:10.942Z,23
2016-07-05T00:55:10.957Z,22.99
2016-07-05T00:56:10.992Z,23
2016-07-05T00:57:10.976Z,23.03
2016-07-05T00:58:10.988Z,22.96
2016-07-05T00:59:11.595Z,22.99
2016-07-05T01:00:11.000Z,22.99
2016-07-05T01:01:11.000Z,22.94
2016-07-05T01:02:11.000Z,22.91
2016-07-05T01:03:11.021Z,22.96
2016-07-05T01:04:11.014Z,22.94
2016-07-05T01:05:11.056Z,22.91
2016-07-05T01:06:11.045Z,22.91
2016-07-05T01:07:11.046Z,22.89
2016-07-05T01:08:11.066Z,22.97
2016-07-05T01:09:11.070Z,22.89
2016-07-05T01:10:11.079Z,22.94
2016-07-05T01:11:11.083Z,22.88
2016-07-05T01:12:11.108Z,22.91
2016-07-05T01:13:11.100Z,22.92
2016-07-05T01:14:11.128Z,22.96
2016-07-05T01:15:11.102Z,22.88
2016-07-05T01:16:11.133Z,22.86
2016-07-05T01:17:11.141Z,22.92
2016-07-05T01:18:11.138Z,22.99
2016-07-05T01:19:11.177Z,22.94
2016-07-05T01:20:11.173Z,22.89
2016-07-05T01:21:11.207Z,22.96
2016-07-05T01:22:11.169Z,22.91
2016-07-05T01:23:11.198Z,22.91
2016-07-05T01:24:11.227Z,22.92
2016-07-05T01:25:11.218Z,22.91
2016-07-05T01:26:11.235Z,22.94
2016-07-05T01:27:11.241Z,22.89
2016-07-05T01:28:11.253Z,22.91
2016-07-05T01:29:11.314Z,22.89
2016-07-05T01:30:11.250Z,22.91
2016-07-05T01:31:11.279Z,22.89
2016-07-05T01:32:11.260Z,22.89
2016-07-05T01:33:11.267Z,22.89
2016-07-05T01:34:11.289Z,22.97
2016-07-05T01:35:11.298Z,22.92
2016-07-05T01:36:11.310Z,22.92
2016-07-05T01:37:11.328Z,22.91
2016-07-05T01:38:11.342Z,22.92
2016-07-05T01:39:11.346Z,22.84
2016-07-05T01:40:11.339Z,22.92
2016-07-05T01:41:11.360Z,22.92
2016-07-05T01:42:11.385Z,22.92
2016-07-05T01:43:11.993Z,22.89
2016-07-05T01:44:11.375Z,22.91
2016-07-05T01:45:11.381Z,22.92
2016-07-05T01:46:11.411Z,22.81
2016-07-05T01:47:11.416Z,22.92
2016-07-05T01:48:11.427Z,22.94
2016-07-05T01:49:11.409Z,22.81
2016-07-05T01:50:11.442Z,22.94
2016-07-05T01:51:11.429Z,22.94
2016-07-05T01:52:11.442Z,22.91
2016-07-05T01:53:11.467Z,22.84
2016-07-05T01:54:11.461Z,22.81
2016-07-05T01:55:11.504Z,22.84
2016-07-05T01:56:11.497Z,22.81
2016-07-05T01:57:11.486Z,22.89
2016-07-05T01:58:11.503Z,22.79
2016-07-05T01:59:11.549Z,22.88
2016-07-05T02:00:11.597Z,22.81
2016-07-05T02:01:11.779Z,22.84
2016-07-05T02:02:11.685Z,22.88
2016-07-05T02:03:11.799Z,22.88
2016-07-05T02:04:11.596Z,22.84
2016-07-05T02:05:11.835Z,22.85
2016-07-05T02:06:11.820Z,22.75
2016-07-05T02:07:11.868Z,22.81
2016-07-05T02:08:11.744Z,22.84
2016-07-05T02:09:11.805Z,22.85
2016-07-05T02:10:11.613Z,22.79
2016-07-05T02:11:11.625Z,22.85
2016-07-05T02:12:11.646Z,22.82
2016-07-05T02:13:11.631Z,22.81
2016-07-05T02:14:11.656Z,22.84
2016-07-05T02:15:11.650Z,22.82
2016-07-05T02:16:11.655Z,22.75
2016-07-05T02:17:11.686Z,22.86
2016-07-05T02:18:11.706Z,22.82
2016-07-05T02:19:11.679Z,22.85
2016-07-05T02:20:12.314Z,22.85
2016-07-05T02:21:11.720Z,22.76
2016-07-05T02:22:11.706Z,22.84
2016-07-05T02:23:11.717Z,22.82
2016-07-05T02:24:11.757Z,22.71
2016-07-05T02:25:11.732Z,22.79
2016-07-05T02:26:11.763Z,22.78
2016-07-05T02:27:11.726Z,22.84
2016-07-05T02:28:11.777Z,22.79
2016-07-05T02:29:11.869Z,22.75
2016-07-05T02:30:11.790Z,22.69
2016-07-05T02:31:11.767Z,22.79
2016-07-05T02:32:11.803Z,22.76
2016-07-05T02:33:11.807Z,22.73
2016-07-05T02:34:11.796Z,22.79
2016-07-05T02:35:11.798Z,22.7
2016-07-05T02:36:11.850Z,22.75
2016-07-05T02:37:11.857Z,22.7
2016-07-05T02:38:11.844Z,22.81
2016-07-05T02:39:11.870Z,22.71
2016-07-05T02:40:11.896Z,22.7
2016-07-05T02:41:11.878Z,22.79
2016-07-05T02:42:11.903Z,22.66
2016-07-05T02:43:11.920Z,22.82
2016-07-05T02:44:11.906Z,22.76
2016-07-05T02:45:11.932Z,22.69
2016-07-05T02:46:11.939Z,22.78
2016-07-05T02:47:11.933Z,22.75
2016-07-05T02:48:11.955Z,22.78
2016-07-05T02:49:11.918Z,22.78
2016-07-05T02:50:11.959Z,22.66
2016-07-05T02:51:11.959Z,22.75
2016-07-05T02:52:11.964Z,22.78
2016-07-05T02:53:12.024Z,22.69
2016-07-05T02:54:12.010Z,22.81
2016-07-05T02:55:12.005Z,22.76
2016-07-05T02:56:12.026Z,22.69
2016-07-05T02:57:12.029Z,22.73
2016-07-05T02:58:12.016Z,22.71
2016-07-05T02:59:12.018Z,22.7
2016-07-05T03:00:12.040Z,22.76
2016-07-05T03:01:12.036Z,22.67
2016-07-05T03:02:12.068Z,22.67
2016-07-05T03:03:12.063Z,22.67
2016-07-05T03:04:12.092Z,22.76
2016-07-05T03:05:12.111Z,22.75
2016-07-05T03:06:12.108Z,22.78
2016-07-05T03:07:12.102Z,22.66
2016-07-05T03:08:12.140Z,22.69
2016-07-05T03:09:12.127Z,22.73
2016-07-05T03:10:12.150Z,22.76
2016-07-05T03:11:12.142Z,22.66
2016-07-05T03:12:12.150Z,22.69
2016-07-05T03:13:12.158Z,22.69
2016-07-05T03:14:12.191Z,22.73
2016-07-05T03:15:12.203Z,22.78
2016-07-05T03:16:12.181Z,22.75
2016-07-05T03:17:12.204Z,22.75
2016-07-05T03:18:12.219Z,22.78
2016-07-05T03:19:12.208Z,22.73
2016-07-05T03:20:12.233Z,22.73
2016-07-05T03:21:12.221Z,22.78
2016-07-05T03:22:12.251Z,22.75
2016-07-05T03:23:12.261Z,22.67
2016-07-05T03:24:12.254Z,22.67
2016-07-05T03:25:12.289Z,22.69
2016-07-05T03:26:12.291Z,22.67
2016-07-05T03:27:12.303Z,22.69
2016-07-05T03:28:12.290Z,22.73
2016-07-05T03:29:12.323Z,22.71
2016-07-05T03:30:12.300Z,22.7
2016-07-05T03:31:12.351Z,22.69
2016-07-05T03:32:12.329Z,22.75
2016-07-05T03:33:12.362Z,22.73
2016-07-05T03:34:12.353Z,22.73
2016-07-05T03:35:12.345Z,22.71
2016-07-05T03:36:12.364Z,22.76
2016-07-05T03:37:12.368Z,22.75
2016-07-05T03:38:12.398Z,22.75
2016-07-05T03:39:12.387Z,22.67
2016-07-05T03:40:12.397Z,22.75
2016-07-05T03:41:12.406Z,22.71
2016-07-05T03:42:12.417Z,22.75
2016-07-05T03:43:12.439Z,22.7
2016-07-05T03:44:12.433Z,22.75
2016-07-05T03:45:12.415Z,22.75
2016-07-05T03:46:12.468Z,22.73
2016-07-05T03:47:12.482Z,22.73
2016-07-05T03:48:12.460Z,22.7
2016-07-05T03:49:12.475Z,22.67
2016-07-05T03:50:12.486Z,22.69
2016-07-05T03:51:12.499Z,22.71
2016-07-05T03:52:12.492Z,22.75
2016-07-05T03:53:12.509Z,22.71
2016-07-05T03:54:12.550Z,22.73
2016-07-05T03:55:12.551Z,22.73
2016-07-05T03:56:12.556Z,22.7
2016-07-05T03:57:12.551Z,22.75
2016-07-05T03:58:12.560Z,22.73
2016-07-05T03:59:12.570Z,22.71
2016-07-05T04:00:12.568Z,22.73
2016-07-05T04:01:12.597Z,22.73
2016-07-05T04:02:12.623Z,22.75
2016-07-05T04:03:12.614Z,22.73
2016-07-05T04:04:12.605Z,22.69
2016-07-05T04:05:12.605Z,22.7
2016-07-05T04:06:12.647Z,22.73
2016-07-05T04:07:12.651Z,22.73
2016-07-05T04:08:12.651Z,22.7
2016-07-05T04:09:12.674Z,22.67
2016-07-05T04:10:12.674Z,22.75
2016-07-05T04:11:12.650Z,22.76
2016-07-05T04:12:12.703Z,22.67
2016-07-05T04:13:12.688Z,22.71
2016-07-05T04:14:12.708Z,22.79
2016-07-05T04:15:12.694Z,22.73
2016-07-05T04:16:12.717Z,22.79
2016-07-05T04:17:12.734Z,22.7
2016-07-05T04:18:12.734Z,22.71
2016-07-05T04:19:12.770Z,22.7
2016-07-05T04:20:12.734Z,22.76
2016-07-05T04:21:12.765Z,22.76
2016-07-05T04:22:12.788Z,22.81
2016-07-05T04:23:12.783Z,22.82
2016-07-05T04:24:12.788Z,22.69
2016-07-05T04:25:12.804Z,22.75
2016-07-05T04:26:12.806Z,22.81
2016-07-05T04:27:12.826Z,22.79
2016-07-05T04:28:12.820Z,22.78
2016-07-05T04:29:12.835Z,22.79
2016-07-05T04:30:12.828Z,22.79
2016-07-05T04:31:12.864Z,22.7
2016-07-05T04:32:12.861Z,22.73
2016-07-05T04:33:12.853Z,22.81
2016-07-05T04:34:12.873Z,22.71
2016-07-05T04:35:12.869Z,22.76
2016-07-05T04:36:12.893Z,22.78
2016-07-05T04:37:12.871Z,22.81
2016-07-05T04:38:12.925Z,22.85
2016-07-05T04:39:12.933Z,22.84
2016-07-05T04:40:12.929Z,22.85
2016-07-05T04:41:12.933Z,22.86
2016-07-05T04:42:12.938Z,22.84
2016-07-05T04:43:12.946Z,22.82
2016-07-05T04:44:12.962Z,22.79
2016-07-05T04:45:12.991Z,22.82
2016-07-05T04:46:12.985Z,22.91
2016-07-05T04:47:13.021Z,22.84
2016-07-05T04:48:13.016Z,22.84
2016-07-05T04:49:12.993Z,22.84
2016-07-05T04:50:13.010Z,22.82
2016-07-05T04:51:13.000Z,22.82
2016-07-05T04:52:13.033Z,22.82
2016-07-05T04:53:13.022Z,22.79
2016-07-05T04:54:13.059Z,22.86
2016-07-05T04:55:13.064Z,22.92
2016-07-05T04:56:13.073Z,22.79
2016-07-05T04:57:13.068Z,22.84
2016-07-05T04:58:13.076Z,22.86
2016-07-05T04:59:13.093Z,22.86
2016-07-05T05:00:13.086Z,22.79
2016-07-05T05:01:13.098Z,22.86
2016-07-05T05:02:13.133Z,22.84
2016-07-05T05:03:13.136Z,22.85
2016-07-05T05:04:13.144Z,22.85
2016-07-05T05:05:13.165Z,22.82
2016-07-05T05:06:13.177Z,22.86
2016-07-05T05:07:13.162Z,22.86
2016-07-05T05:08:13.157Z,22.82
2016-07-05T05:09:13.202Z,22.92
2016-07-05T05:10:13.216Z,22.82
2016-07-05T05:11:13.177Z,22.81
2016-07-05T05:12:13.222Z,22.89
2016-07-05T05:13:13.218Z,22.91
2016-07-05T05:14:13.233Z,22.84
2016-07-05T05:15:13.239Z,22.91
2016-07-05T05:16:13.262Z,22.78
2016-07-05T05:17:13.256Z,22.92
2016-07-05T05:18:13.273Z,22.94
2016-07-05T05:19:13.277Z,22.79
2016-07-05T05:20:13.285Z,22.94
2016-07-05T05:21:13.283Z,22.92
2016-07-05T05:22:13.289Z,22.97
2016-07-05T05:23:13.303Z,22.84
2016-07-05T05:24:13.421Z,22.84
2016-07-05T05:25:13.324Z,22.89
2016-07-05T05:26:13.312Z,22.92
2016-07-05T05:27:13.354Z,22.94
2016-07-05T05:28:13.374Z,22.92
2016-07-05T05:29:13.380Z,22.92
2016-07-05T05:30:13.360Z,22.96
2016-07-05T05:31:13.378Z,22.94
2016-07-05T05:32:13.402Z,22.92
2016-07-05T05:33:13.399Z,22.94
2016-07-05T05:34:13.405Z,22.92
2016-07-05T05:35:13.387Z,22.91
2016-07-05T05:36:13.425Z,22.85
2016-07-05T05:37:13.418Z,22.91
2016-07-05T05:38:13.444Z,22.88
2016-07-05T05:39:13.460Z,22.91
2016-07-05T05:40:13.447Z,22.91
2016-07-05T05:41:13.449Z,22.85
2016-07-05T05:42:13.475Z,22.89
2016-07-05T05:43:13.495Z,22.92
2016-07-05T05:44:13.484Z,22.91
2016-07-05T05:45:13.521Z,22.96
2016-07-05T05:46:13.534Z,22.92
2016-07-05T05:47:13.497Z,22.94
2016-07-05T05:48:13.502Z,22.91
2016-07-05T05:49:13.529Z,22.96
2016-07-05T05:50:13.545Z,22.96
2016-07-05T05:51:13.553Z,22.94
2016-07-05T05:52:13.552Z,22.92
2016-07-05T05:53:13.568Z,22.96
2016-07-05T05:54:13.599Z,22.99
2016-07-05T05:55:13.609Z,22.97
2016-07-05T05:56:13.610Z,22.97
2016-07-05T05:57:13.605Z,23
2016-07-05T05:58:13.607Z,22.97
2016-07-05T05:59:13.590Z,22.92
2016-07-05T06:00:13.623Z,22.96
2016-07-05T06:01:13.645Z,22.97
2016-07-05T06:02:13.675Z,22.96
2016-07-05T06:03:13.666Z,22.97
2016-07-05T06:04:13.694Z,22.99
2016-07-05T06:05:13.664Z,22.96
2016-07-05T06:06:13.715Z,23.04
2016-07-05T06:07:13.705Z,23.04
2016-07-05T06:08:13.693Z,23.09
2016-07-05T06:09:13.725Z,23.04
2016-07-05T06:10:13.725Z,22.99
2016-07-05T06:11:14.338Z,23.06
2016-07-05T06:12:13.736Z,22.99
2016-07-05T06:13:13.771Z,22.89
2016-07-05T06:14:13.767Z,22.99
2016-07-05T06:15:13.771Z,23.03
2016-07-05T06:16:13.771Z,23.06
2016-07-05T06:17:13.780Z,23
2016-07-05T06:18:13.795Z,22.99
2016-07-05T06:19:13.798Z,23.03
2016-07-05T06:20:13.831Z,23
2016-07-05T06:21:13.818Z,22.97
2016-07-05T06:22:13.806Z,23.01
2016-07-05T06:23:13.851Z,23.06
2016-07-05T06:24:13.851Z,23
2016-07-05T06:25:13.855Z,23
2016-07-05T06:26:13.873Z,23.01
2016-07-05T06:27:13.863Z,23.07
2016-07-05T06:28:13.880Z,23.06
2016-07-05T06:29:13.900Z,23.06
2016-07-05T06:30:13.892Z,23.07
2016-07-05T06:31:13.893Z,23.04
2016-07-05T06:32:13.921Z,23.07
2016-07-05T06:33:13.901Z,23.18
2016-07-05T06:34:13.932Z,23.06
2016-07-05T06:35:13.928Z,23.1
2016-07-05T06:36:13.940Z,23.15
2016-07-05T06:37:13.960Z,23.14
2016-07-05T06:38:13.971Z,23.1
2016-07-05T06:39:13.974Z,23.06
2016-07-05T06:40:13.967Z,23.06
2016-07-05T06:41:13.977Z,23.07
2016-07-05T06:42:13.997Z,23.07
2016-07-05T06:43:13.985Z,23.07
2016-07-05T06:44:14.024Z,23.12
2016-07-05T06:45:14.013Z,23.12
2016-07-05T06:46:14.046Z,23.09
2016-07-05T06:47:14.026Z,23.15
2016-07-05T06:48:14.043Z,23.18
2016-07-05T06:49:14.055Z,23.22
2016-07-05T06:50:14.070Z,23.18
2016-07-05T06:51:14.076Z,23.12
2016-07-05T06:52:14.068Z,23.1
2016-07-05T06:53:14.071Z,23.09
2016-07-05T06:54:14.710Z,23.18
2016-07-05T06:55:14.094Z,23.15
2016-07-05T06:56:14.122Z,23.25
2016-07-05T06:57:14.129Z,23.22
2016-07-05T06:58:14.135Z,23.22
2016-07-05T06:59:14.138Z,23.26
2016-07-05T07:00:14.167Z,23.26
2016-07-05T07:01:14.172Z,23.26
2016-07-05T07:02:14.170Z,23.26
2016-07-05T07:03:14.176Z,23.29
2016-07-05T07:04:14.173Z,23.37
2016-07-05T07:05:14.209Z,23.29
2016-07-05T07:06:14.189Z,23.26
2016-07-05T07:07:14.218Z,23.29
2016-07-05T07:08:14.220Z,23.38
2016-07-05T07:09:14.257Z,23.38
2016-07-05T07:10:14.274Z,23.38
2016-07-05T07:11:14.263Z,23.32
2016-07-05T07:12:14.277Z,23.4
2016-07-05T07:13:14.302Z,23.34
2016-07-05T07:14:14.274Z,23.35
2016-07-05T07:15:14.290Z,23.34
2016-07-05T07:16:14.298Z,23.35
2016-07-05T07:17:14.329Z,23.35
2016-07-05T07:18:14.324Z,23.29
2016-07-05T07:19:14.335Z,23.26
2016-07-05T07:20:14.366Z,23.28
2016-07-05T07:21:14.353Z,23.18
2016-07-05T07:22:14.342Z,23.34
2016-07-05T07:23:14.355Z,23.24
2016-07-05T07:24:14.414Z,23.34
2016-07-05T07:25:14.369Z,23.18
2016-07-05T07:26:14.382Z,23.32
2016-07-05T07:27:14.395Z,23.29
2016-07-05T07:28:14.401Z,23.26
2016-07-05T07:29:14.451Z,23.35
2016-07-05T07:30:14.429Z,23.38
2016-07-05T07:31:14.455Z,23.34
2016-07-05T07:32:14.465Z,23.4
2016-07-05T07:33:14.440Z,23.29
2016-07-05T07:34:14.453Z,23.37
2016-07-05T07:35:14.479Z,23.4
2016-07-05T07:36:14.480Z,23.4
2016-07-05T07:37:14.503Z,23.32
2016-07-05T07:38:14.514Z,23.37
2016-07-05T07:39:14.524Z,23.34
2016-07-05T07:40:14.547Z,23.37
2016-07-05T07:41:14.540Z,23.34
2016-07-05T07:42:14.529Z,23.34
2016-07-05T07:43:14.556Z,23.32
2016-07-05T07:44:14.563Z,23.34
2016-07-05T07:45:14.587Z,23.37
2016-07-05T07:46:14.590Z,23.32
2016-07-05T07:47:14.584Z,23.38
2016-07-05T07:48:14.608Z,23.38
2016-07-05T07:49:14.629Z,23.38
2016-07-05T07:50:14.596Z,23.44
2016-07-05T07:51:14.651Z,23.42
2016-07-05T07:52:14.680Z,23.37
2016-07-05T07:53:14.660Z,23.41
2016-07-05T07:54:14.640Z,23.41
2016-07-05T07:55:14.667Z,23.37
2016-07-05T07:56:14.673Z,23.6
2016-07-05T07:57:14.681Z,23.47
2016-07-05T07:58:14.685Z,23.56
2016-07-05T07:59:14.703Z,23.5
2016-07-05T08:00:14.725Z,23.53
2016-07-05T08:01:14.740Z,23.57
2016-07-05T08:02:14.748Z,23.56
2016-07-05T08:03:14.743Z,23.63
2016-07-05T08:04:14.730Z,23.52
2016-07-05T08:05:14.767Z,23.56
2016-07-05T08:06:14.757Z,23.64
2016-07-05T08:07:14.788Z,23.62
2016-07-05T08:08:14.805Z,23.67
2016-07-05T08:09:14.809Z,23.62
2016-07-05T08:10:14.791Z,23.67
2016-07-05T08:11:14.820Z,23.74
2016-07-05T08:12:14.821Z,23.66
2016-07-05T08:13:14.846Z,23.64
2016-07-05T08:14:14.809Z,23.71
2016-07-05T08:15:14.864Z,23.74
2016-07-05T08:16:14.859Z,23.71
2016-07-05T08:17:14.885Z,23.71
2016-07-05T08:18:14.880Z,23.75
2016-07-05T08:19:14.894Z,23.75
2016-07-05T08:20:14.894Z,23.77
2016-07-05T08:21:14.888Z,23.75
2016-07-05T08:22:14.906Z,23.78
2016-07-05T08:23:14.918Z,23.78
2016-07-05T08:24:14.936Z,23.78
2016-07-05T08:25:14.951Z,23.81
2016-07-05T08:26:14.952Z,23.85
2016-07-05T08:27:15.576Z,23.85
2016-07-05T08:28:14.966Z,23.93
2016-07-05T08:29:14.982Z,23.93
2016-07-05T08:30:14.977Z,23.97
2016-07-05T08:31:15.008Z,23.94
2016-07-05T08:32:15.019Z,24.04
2016-07-05T08:33:15.026Z,23.92
2016-07-05T08:34:15.026Z,23.99
2016-07-05T08:35:15.045Z,24.04
2016-07-05T08:36:15.058Z,23.94
2016-07-05T08:37:15.051Z,23.9
2016-07-05T08:38:15.077Z,23.92
2016-07-05T08:39:15.134Z,23.99
2016-07-05T08:40:15.096Z,23.96
2016-07-05T08:41:15.724Z,24
2016-07-05T08:42:15.101Z,24
2016-07-05T08:43:15.135Z,24.04
2016-07-05T08:44:15.150Z,24.04
2016-07-05T08:45:15.768Z,24.09
2016-07-05T08:46:15.194Z,24.07
2016-07-05T08:47:15.171Z,24.07
2016-07-05T08:48:15.177Z,24
2016-07-05T08:49:15.166Z,24.09
2016-07-05T08:50:15.166Z,24.07
2016-07-05T08:51:15.800Z,24.02
2016-07-05T08:52:15.212Z,24.11
2016-07-05T08:53:15.228Z,24.11
2016-07-05T08:54:15.208Z,24.12
2016-07-05T08:55:15.275Z,24.17
2016-07-05T08:56:15.234Z,24.19
2016-07-05T08:57:15.853Z,24.11
2016-07-05T08:58:15.264Z,24.17
2016-07-05T08:59:15.265Z,24.22
2016-07-05T09:00:15.275Z,24.15
2016-07-05T09:01:15.292Z,24.18
2016-07-05T09:02:15.903Z,24.19
2016-07-05T09:03:15.311Z,24.21
2016-07-05T09:04:15.343Z,24.17
2016-07-05T09:05:15.376Z,24.24
2016-07-05T09:06:15.366Z,24.21
2016-07-05T09:07:15.348Z,24.29
2016-07-05T09:08:15.402Z,24.22
2016-07-05T09:09:16.013Z,24.18
2016-07-05T09:10:15.368Z,24.12
2016-07-05T09:11:15.378Z,24.29
2016-07-05T09:12:15.404Z,24.15
2016-07-05T09:13:15.425Z,24.14
2016-07-05T09:14:15.408Z,24.17
2016-07-05T09:15:15.436Z,24.22
2016-07-05T09:16:15.423Z,24.29
2016-07-05T09:17:15.466Z,24.27
2016-07-05T09:18:15.497Z,24.32
2016-07-05T09:19:15.439Z,24.3
2016-07-05T09:20:15.443Z,24.33
2016-07-05T09:21:15.468Z,24.32
2016-07-05T09:22:15.479Z,24.3
2016-07-05T09:23:16.112Z,24.39
2016-07-05T09:24:15.505Z,24.37
2016-07-05T09:25:16.134Z,24.36
2016-07-05T09:26:15.523Z,24.45
2016-07-05T09:27:15.530Z,24.45
2016-07-05T09:28:15.541Z,24.37
2016-07-05T09:29:15.550Z,24.45
2016-07-05T09:30:15.566Z,24.54
2016-07-05T09:31:15.564Z,24.45
2016-07-05T09:32:15.596Z,24.48
2016-07-05T09:33:15.589Z,24.52
2016-07-05T09:34:15.620Z,24.49
2016-07-05T09:35:15.613Z,24.4
2016-07-05T09:36:15.611Z,24.44
2016-07-05T09:37:15.634Z,24.49
2016-07-05T09:38:15.656Z,24.55
2016-07-05T09:39:15.645Z,24.48
2016-07-05T09:40:15.678Z,24.59
2016-07-05T09:41:15.669Z,24.54
2016-07-05T09:42:15.672Z,24.55
2016-07-05T09:43:15.695Z,24.59
2016-07-05T09:44:15.685Z,24.58
2016-07-05T09:45:15.723Z,24.58
2016-07-05T09:46:15.705Z,24.63
2016-07-05T09:47:15.741Z,24.64
2016-07-05T09:48:15.741Z,24.61
2016-07-05T09:49:15.771Z,24.63
2016-07-05T09:50:15.754Z,24.58
2016-07-05T09:51:15.769Z,24.55
2016-07-05T09:52:15.778Z,24.64
2016-07-05T09:53:15.797Z,24.58
2016-07-05T09:54:15.812Z,24.63
2016-07-05T09:55:15.802Z,24.71
2016-07-05T09:56:15.833Z,24.67
2016-07-05T09:57:15.826Z,24.7
2016-07-05T09:58:15.816Z,24.74
2016-07-05T09:59:15.843Z,24.67
2016-07-05T10:00:15.856Z,24.75
2016-07-05T10:01:15.859Z,24.71
2016-07-05T10:02:15.861Z,24.71
2016-07-05T10:03:15.855Z,24.7
2016-07-05T10:04:15.884Z,24.77
2016-07-05T10:05:15.909Z,24.78
2016-07-05T10:06:15.906Z,24.8
2016-07-05T10:07:15.908Z,24.92
2016-07-05T10:08:15.924Z,24.86
2016-07-05T10:09:15.932Z,24.82
2016-07-05T10:10:15.976Z,24.87
2016-07-05T10:11:15.964Z,24.75
2016-07-05T10:12:15.948Z,24.87
2016-07-05T10:13:15.959Z,24.82
2016-07-05T10:14:15.981Z,24.78
2016-07-05T10:15:16.001Z,24.87
2016-07-05T10:16:16.006Z,24.82
2016-07-05T10:17:16.010Z,24.9
2016-07-05T10:18:16.030Z,24.92
2016-07-05T10:19:16.022Z,24.93
2016-07-05T10:20:16.028Z,24.92
2016-07-05T10:21:16.050Z,25
2016-07-05T10:22:16.073Z,24.9
2016-07-05T10:23:16.699Z,24.9
2016-07-05T10:24:16.075Z,25.04
2016-07-05T10:25:16.102Z,25.02
2016-07-05T10:26:16.101Z,25.09
2016-07-05T10:27:16.722Z,25.11
2016-07-05T10:28:16.103Z,25.04
2016-07-05T10:29:16.129Z,25.07
2016-07-05T10:30:16.122Z,25.07
2016-07-05T10:31:16.123Z,25.12
2016-07-05T10:32:16.179Z,25.12
2016-07-05T10:33:16.150Z,25.12
2016-07-05T10:34:16.190Z,25.12
2016-07-05T10:35:16.176Z,25.11
2016-07-05T10:36:16.196Z,25.11
2016-07-05T10:37:16.205Z,25.19
2016-07-05T10:38:16.202Z,25.11
2016-07-05T10:39:16.210Z,25.11
2016-07-05T10:40:16.229Z,25.09
2016-07-05T10:41:16.234Z,25.17
2016-07-05T10:42:16.255Z,25.15
2016-07-05T10:43:16.257Z,25.19
2016-07-05T10:44:16.268Z,25.24
2016-07-05T10:45:16.263Z,25.24
2016-07-05T10:46:16.303Z,25.2
2016-07-05T10:47:16.273Z,25.2
2016-07-05T10:48:16.330Z,25.2
2016-07-05T10:49:16.298Z,25.15
2016-07-05T10:50:16.354Z,25.15
2016-07-05T10:51:16.346Z,25.22
2016-07-05T10:52:16.358Z,25.17
2016-07-05T10:53:16.368Z,25.17
2016-07-05T10:54:16.348Z,25.24
2016-07-05T10:55:16.364Z,25.2
2016-07-05T10:56:16.380Z,25.34
2016-07-05T10:57:16.392Z,25.29
2016-07-05T10:58:16.409Z,25.27
2016-07-05T10:59:16.424Z,25.33
2016-07-05T11:00:16.417Z,25.3
2016-07-05T11:01:16.455Z,25.27
2016-07-05T11:02:16.453Z,25.3
2016-07-05T11:03:16.466Z,25.29
2016-07-05T11:04:16.476Z,25.33
2016-07-05T11:05:16.479Z,25.24
2016-07-05T11:06:16.475Z,25.34
2016-07-05T11:07:17.115Z,25.32
2016-07-05T11:08:16.509Z,25.26
2016-07-05T11:09:16.522Z,25.32
2016-07-05T11:10:16.514Z,25.26
2016-07-05T11:11:16.514Z,25.19
2016-07-05T11:12:16.529Z,25.27
2016-07-05T11:13:16.597Z,25.33
2016-07-05T11:14:16.557Z,25.26
2016-07-05T11:15:16.571Z,25.32
2016-07-05T11:16:17.174Z,25.37
2016-07-05T11:17:16.580Z,25.32
2016-07-05T11:18:16.589Z,25.3
2016-07-05T11:19:16.608Z,25.33
2016-07-05T11:20:16.627Z,25.37
2016-07-05T11:21:16.608Z,25.41
2016-07-05T11:22:16.640Z,25.38
2016-07-05T11:23:16.638Z,25.47
2016-07-05T11:24:16.677Z,25.44
2016-07-05T11:25:16.660Z,25.41
2016-07-05T11:26:16.661Z,25.49
2016-07-05T11:27:16.702Z,25.41
2016-07-05T11:28:16.699Z,25.49
2016-07-05T11:29:16.703Z,25.47
2016-07-05T11:30:16.726Z,25.47
2016-07-05T11:31:16.720Z,25.48
2016-07-05T11:32:16.753Z,25.39
2016-07-05T11:33:16.771Z,25.44
2016-07-05T11:34:16.747Z,25.37
2016-07-05T11:35:16.771Z,25.37
2016-07-05T11:36:16.760Z,25.34
2016-07-05T11:37:16.758Z,25.41
2016-07-05T11:38:16.791Z,25.41
2016-07-05T11:39:16.805Z,25.45
2016-07-05T11:40:16.819Z,25.44
2016-07-05T11:41:16.834Z,25.48
2016-07-05T11:42:16.836Z,25.45
2016-07-05T11:43:16.843Z,25.47
2016-07-05T11:44:16.850Z,25.47
2016-07-05T11:45:16.871Z,25.44
2016-07-05T11:46:16.872Z,25.44
2016-07-05T11:47:16.871Z,25.41
2016-07-05T11:48:16.908Z,25.44
2016-07-05T11:49:16.913Z,25.45
2016-07-05T11:50:16.899Z,25.49
2016-07-05T11:51:16.910Z,25.48
2016-07-05T11:52:16.942Z,25.49
2016-07-05T11:53:16.945Z,25.42
2016-07-05T11:54:16.937Z,25.48
2016-07-05T11:55:16.953Z,25.48
2016-07-05T11:56:16.958Z,25.49
2016-07-05T11:57:16.964Z,25.54
2016-07-05T11:58:16.993Z,25.59
2016-07-05T11:59:17.019Z,25.48
2016-07-05T12:00:16.993Z,25.52
2016-07-05T12:01:17.001Z,25.41
2016-07-05T12:02:17.021Z,25.57
2016-07-05T12:03:17.047Z,25.51
2016-07-05T12:04:17.048Z,25.57
2016-07-05T12:05:17.052Z,25.49
2016-07-05T12:06:17.064Z,25.52
2016-07-05T12:07:17.057Z,25.6
2016-07-05T12:08:17.091Z,25.64
2016-07-05T12:09:17.104Z,25.54
2016-07-05T12:10:17.104Z,25.64
2016-07-05T12:11:17.713Z,25.67
2016-07-05T12:12:17.116Z,25.74
2016-07-05T12:13:17.162Z,25.67
2016-07-05T12:14:17.137Z,25.56
2016-07-05T12:15:17.158Z,25.62
2016-07-05T12:16:17.182Z,25.63
2016-07-05T12:17:17.172Z,25.67
2016-07-05T12:18:17.206Z,25.66
2016-07-05T12:19:17.190Z,25.64
2016-07-05T12:20:17.204Z,25.67
2016-07-05T12:21:17.199Z,25.71
2016-07-05T12:22:17.215Z,25.64
2016-07-05T12:23:17.239Z,25.56
2016-07-05T12:24:17.233Z,25.69
2016-07-05T12:25:17.241Z,25.52
2016-07-05T12:26:17.272Z,25.78
2016-07-05T12:27:17.298Z,25.76
2016-07-05T12:28:17.288Z,25.76
2016-07-05T12:29:17.290Z,25.79
2016-07-05T12:30:17.279Z,25.7
2016-07-05T12:31:17.322Z,25.64
2016-07-05T12:32:17.336Z,25.7
2016-07-05T12:33:17.322Z,25.57
2016-07-05T12:34:17.328Z,25.54
2016-07-05T12:35:17.365Z,25.6
2016-07-05T12:36:17.359Z,25.59
2016-07-05T12:37:17.367Z,25.62
2016-07-05T12:38:17.387Z,25.66
2016-07-05T12:39:17.394Z,25.7
2016-07-05T12:40:17.371Z,25.78
2016-07-05T12:41:17.384Z,25.75
2016-07-05T12:42:17.408Z,25.76
2016-07-05T12:43:17.439Z,25.64
2016-07-05T12:44:17.462Z,25.67
2016-07-05T12:45:17.465Z,25.71
2016-07-05T12:46:17.467Z,25.67
2016-07-05T12:47:17.473Z,25.79
2016-07-05T12:48:17.467Z,25.76
2016-07-05T12:49:17.490Z,25.78
2016-07-05T12:50:17.486Z,25.76
2016-07-05T12:51:17.492Z,25.74
2016-07-05T12:52:17.495Z,25.74
2016-07-05T12:53:17.527Z,25.71
2016-07-05T12:54:17.546Z,25.76
2016-07-05T12:55:17.536Z,25.67